sensor_id;sensor_type;location;lat;lon;timestamp;P1;durP1;ratioP1;P2;durP2;ratioP2
22289;SDS011;11313;50.116;8.424;2023-07-29T00:00:46;1.40;;;0.90;;
22289;SDS011;11313;50.116;8.424;2023-07-29T00:03:13;1.10;;;1.00;;
22289;SDS011;11313;50.116;8.424;2023-07-29T00:05:40;0.90;;;0.90;;
22289;SDS011;11313;50.116;8.424;2023-07-29T00:08:06;1.10;;;1.00;;
22289;SDS011;11313;50.116;8.424;2023-07-29T00:10:32;2.17;;;1.10;;
22289;SDS011;11313;50.116;8.424;2023-07-29T00:13:00;1.20;;;1.00;;
22289;SDS011;11313;50.116;8.424;2023-07-29T00:15:26;1.20;;;1.10;;
22289;SDS011;11313;50.116;8.424;2023-07-29T00:17:52;1.08;;;0.88;;
22289;SDS011;11313;50.116;8.424;2023-07-29T00:20:19;1.20;;;0.95;;
22289;SDS011;11313;50.116;8.424;2023-07-29T00:22:46;2.00;;;0.90;;
22289;SDS011;11313;50.116;8.424;2023-07-29T00:25:11;1.50;;;1.00;;
22289;SDS011;11313;50.116;8.424;2023-07-29T00:27:38;1.65;;;1.20;;
22289;SDS011;11313;50.116;8.424;2023-07-29T00:30:06;1.83;;;0.98;;
22289;SDS011;11313;50.116;8.424;2023-07-29T00:32:32;0.95;;;0.90;;
22289;SDS011;11313;50.116;8.424;2023-07-29T00:34:58;1.17;;;1.00;;
22289;SDS011;11313;50.116;8.424;2023-07-29T00:37:25;2.50;;;0.90;;
22289;SDS011;11313;50.116;8.424;2023-07-29T00:39:53;1.20;;;1.10;;
22289;SDS011;11313;50.116;8.424;2023-07-29T00:42:21;2.30;;;0.90;;
22289;SDS011;11313;50.116;8.424;2023-07-29T00:44:46;1.65;;;0.93;;
22289;SDS011;11313;50.116;8.424;2023-07-29T00:47:15;0.95;;;0.90;;
22289;SDS011;11313;50.116;8.424;2023-07-29T00:49:43;1.10;;;0.80;;
22289;SDS011;11313;50.116;8.424;2023-07-29T00:52:10;1.20;;;0.90;;
22289;SDS011;11313;50.116;8.424;2023-07-29T00:54:37;1.13;;;0.80;;
22289;SDS011;11313;50.116;8.424;2023-07-29T00:57:06;0.90;;;0.90;;
22289;SDS011;11313;50.116;8.424;2023-07-29T00:59:35;1.13;;;0.90;;
22289;SDS011;11313;50.116;8.424;2023-07-29T01:02:02;2.50;;;1.20;;
22289;SDS011;11313;50.116;8.424;2023-07-29T01:04:28;1.13;;;0.90;;
22289;SDS011;11313;50.116;8.424;2023-07-29T01:06:58;2.10;;;0.90;;
22289;SDS011;11313;50.116;8.424;2023-07-29T01:10:01;1.50;;;0.98;;
22289;SDS011;11313;50.116;8.424;2023-07-29T01:18:08;1.00;;;0.85;;
22289;SDS011;11313;50.116;8.424;2023-07-29T01:20:40;1.00;;;0.80;;
22289;SDS011;11313;50.116;8.424;2023-07-29T01:23:08;1.00;;;0.80;;
22289;SDS011;11313;50.116;8.424;2023-07-29T01:25:35;1.27;;;0.90;;
22289;SDS011;11313;50.116;8.424;2023-07-29T01:28:01;1.20;;;1.08;;
22289;SDS011;11313;50.116;8.424;2023-07-29T01:30:33;2.20;;;0.93;;
22289;SDS011;11313;50.116;8.424;2023-07-29T01:35:54;0.93;;;0.80;;
22289;SDS011;11313;50.116;8.424;2023-07-29T01:38:31;0.95;;;0.95;;
22289;SDS011;11313;50.116;8.424;2023-07-29T01:41:01;1.05;;;0.90;;
22289;SDS011;11313;50.116;8.424;2023-07-29T01:43:29;1.20;;;1.00;;
22289;SDS011;11313;50.116;8.424;2023-07-29T01:45:55;1.17;;;0.70;;
22289;SDS011;11313;50.116;8.424;2023-07-29T01:48:21;1.80;;;0.90;;
22289;SDS011;11313;50.116;8.424;2023-07-29T01:50:47;1.10;;;1.00;;
22289;SDS011;11313;50.116;8.424;2023-07-29T01:53:13;1.98;;;0.80;;
22289;SDS011;11313;50.116;8.424;2023-07-29T01:55:40;0.95;;;0.80;;
22289;SDS011;11313;50.116;8.424;2023-07-29T01:58:06;0.90;;;0.90;;
22289;SDS011;11313;50.116;8.424;2023-07-29T02:00:32;1.23;;;0.90;;
22289;SDS011;11313;50.116;8.424;2023-07-29T02:02:59;0.85;;;0.85;;
22289;SDS011;11313;50.116;8.424;2023-07-29T02:05:25;1.20;;;0.95;;
22289;SDS011;11313;50.116;8.424;2023-07-29T02:07:52;0.90;;;0.90;;
22289;SDS011;11313;50.116;8.424;2023-07-29T02:10:17;1.13;;;1.00;;
22289;SDS011;11313;50.116;8.424;2023-07-29T02:12:46;1.00;;;0.90;;
22289;SDS011;11313;50.116;8.424;2023-07-29T02:15:12;0.63;;;0.60;;
22289;SDS011;11313;50.116;8.424;2023-07-29T02:17:37;1.42;;;0.82;;
22289;SDS011;11313;50.116;8.424;2023-07-29T02:20:04;1.00;;;0.82;;
22289;SDS011;11313;50.116;8.424;2023-07-29T02:22:30;1.00;;;0.90;;
22289;SDS011;11313;50.116;8.424;2023-07-29T02:24:56;0.77;;;0.77;;
22289;SDS011;11313;50.116;8.424;2023-07-29T02:27:22;0.77;;;0.77;;
22289;SDS011;11313;50.116;8.424;2023-07-29T02:29:50;0.73;;;0.70;;
22289;SDS011;11313;50.116;8.424;2023-07-29T02:32:18;0.82;;;0.73;;
22289;SDS011;11313;50.116;8.424;2023-07-29T02:34:44;1.60;;;0.70;;
22289;SDS011;11313;50.116;8.424;2023-07-29T02:37:10;0.80;;;0.70;;
22289;SDS011;11313;50.116;8.424;2023-07-29T02:39:36;0.82;;;0.82;;
22289;SDS011;11313;50.116;8.424;2023-07-29T02:42:02;0.70;;;0.70;;
22289;SDS011;11313;50.116;8.424;2023-07-29T02:44:28;0.80;;;0.80;;
22289;SDS011;11313;50.116;8.424;2023-07-29T02:46:53;1.02;;;0.82;;
22289;SDS011;11313;50.116;8.424;2023-07-29T02:49:21;1.00;;;0.88;;
22289;SDS011;11313;50.116;8.424;2023-07-29T02:51:47;0.85;;;0.80;;
22289;SDS011;11313;50.116;8.424;2023-07-29T02:54:12;0.90;;;0.90;;
22289;SDS011;11313;50.116;8.424;2023-07-29T02:56:38;0.77;;;0.77;;
22289;SDS011;11313;50.116;8.424;2023-07-29T02:59:03;1.00;;;0.80;;
22289;SDS011;11313;50.116;8.424;2023-07-29T03:01:30;1.20;;;0.77;;
22289;SDS011;11313;50.116;8.424;2023-07-29T03:03:55;0.70;;;0.70;;
22289;SDS011;11313;50.116;8.424;2023-07-29T03:06:21;0.70;;;0.70;;
22289;SDS011;11313;50.116;8.424;2023-07-29T03:08:47;1.00;;;0.90;;
22289;SDS011;11313;50.116;8.424;2023-07-29T03:11:13;0.80;;;0.70;;
22289;SDS011;11313;50.116;8.424;2023-07-29T04:00:16;0.73;;;0.73;;
22289;SDS011;11313;50.116;8.424;2023-07-29T04:02:41;0.80;;;0.80;;
22289;SDS011;11313;50.116;8.424;2023-07-29T04:05:07;1.05;;;0.95;;
22289;SDS011;11313;50.116;8.424;2023-07-29T04:07:34;1.00;;;0.90;;
22289;SDS011;11313;50.116;8.424;2023-07-29T04:10:00;0.85;;;0.85;;
22289;SDS011;11313;50.116;8.424;2023-07-29T04:12:27;0.80;;;0.80;;
22289;SDS011;11313;50.116;8.424;2023-07-29T04:14:53;1.00;;;0.90;;
22289;SDS011;11313;50.116;8.424;2023-07-29T04:17:19;0.80;;;0.80;;
22289;SDS011;11313;50.116;8.424;2023-07-29T04:19:45;1.00;;;0.90;;
22289;SDS011;11313;50.116;8.424;2023-07-29T04:22:10;1.58;;;0.75;;
22289;SDS011;11313;50.116;8.424;2023-07-29T04:24:36;1.90;;;0.90;;
22289;SDS011;11313;50.116;8.424;2023-07-29T04:27:03;1.10;;;1.00;;
22289;SDS011;11313;50.116;8.424;2023-07-29T04:29:28;1.38;;;0.90;;
22289;SDS011;11313;50.116;8.424;2023-07-29T04:31:54;1.10;;;1.00;;
22289;SDS011;11313;50.116;8.424;2023-07-29T04:34:20;0.98;;;0.88;;
22289;SDS011;11313;50.116;8.424;2023-07-29T04:36:46;1.05;;;0.85;;
22289;SDS011;11313;50.116;8.424;2023-07-29T04:39:12;0.98;;;0.88;;
22289;SDS011;11313;50.116;8.424;2023-07-29T04:41:38;1.55;;;0.90;;
22289;SDS011;11313;50.116;8.424;2023-07-29T04:44:04;2.05;;;0.93;;
22289;SDS011;11313;50.116;8.424;2023-07-29T04:46:30;4.80;;;1.20;;
22289;SDS011;11313;50.116;8.424;2023-07-29T04:48:55;5.68;;;1.10;;
22289;SDS011;11313;50.116;8.424;2023-07-29T04:51:21;4.22;;;1.10;;
22289;SDS011;11313;50.116;8.424;2023-07-29T04:53:47;4.03;;;1.10;;
22289;SDS011;11313;50.116;8.424;2023-07-29T04:56:13;3.75;;;1.10;;
22289;SDS011;11313;50.116;8.424;2023-07-29T04:58:38;2.50;;;1.25;;
22289;SDS011;11313;50.116;8.424;2023-07-29T05:01:07;5.88;;;1.08;;
22289;SDS011;11313;50.116;8.424;2023-07-29T05:04:25;3.58;;;1.00;;
22289;SDS011;11313;50.116;8.424;2023-07-29T05:06:47;6.78;;;1.15;;
22289;SDS011;11313;50.116;8.424;2023-07-29T05:09:16;2.28;;;1.00;;
22289;SDS011;11313;50.116;8.424;2023-07-29T05:17:36;4.53;;;1.30;;
22289;SDS011;11313;50.116;8.424;2023-07-29T05:20:12;4.60;;;1.00;;
22289;SDS011;11313;50.116;8.424;2023-07-29T05:22:45;3.45;;;1.20;;
22289;SDS011;11313;50.116;8.424;2023-07-29T05:25:28;1.92;;;1.10;;
22289;SDS011;11313;50.116;8.424;2023-07-29T05:28:01;6.95;;;1.25;;
22289;SDS011;11313;50.116;8.424;2023-07-29T05:33:47;3.67;;;1.10;;
22289;SDS011;11313;50.116;8.424;2023-07-29T05:47:41;5.63;;;1.27;;
22289;SDS011;11313;50.116;8.424;2023-07-29T05:58:02;6.93;;;1.58;;
22289;SDS011;11313;50.116;8.424;2023-07-29T06:01:11;4.88;;;1.45;;
22289;SDS011;11313;50.116;8.424;2023-07-29T06:03:49;5.18;;;1.88;;
22289;SDS011;11313;50.116;8.424;2023-07-29T06:13:13;4.32;;;1.67;;
22289;SDS011;11313;50.116;8.424;2023-07-29T06:15:39;3.53;;;1.60;;
22289;SDS011;11313;50.116;8.424;2023-07-29T06:18:04;6.43;;;1.85;;
22289;SDS011;11313;50.116;8.424;2023-07-29T06:20:30;3.58;;;1.55;;
22289;SDS011;11313;50.116;8.424;2023-07-29T06:22:55;3.25;;;1.83;;
22289;SDS011;11313;50.116;8.424;2023-07-29T06:25:21;5.70;;;2.00;;
22289;SDS011;11313;50.116;8.424;2023-07-29T06:27:47;4.65;;;1.83;;
22289;SDS011;11313;50.116;8.424;2023-07-29T06:30:13;4.90;;;1.92;;
22289;SDS011;11313;50.116;8.424;2023-07-29T06:32:38;4.10;;;2.08;;
22289;SDS011;11313;50.116;8.424;2023-07-29T06:35:04;3.65;;;1.85;;
22289;SDS011;11313;50.116;8.424;2023-07-29T06:37:30;3.78;;;1.95;;
22289;SDS011;11313;50.116;8.424;2023-07-29T06:39:55;4.35;;;2.10;;
22289;SDS011;11313;50.116;8.424;2023-07-29T06:42:21;4.28;;;1.90;;
22289;SDS011;11313;50.116;8.424;2023-07-29T06:44:47;3.67;;;1.90;;
22289;SDS011;11313;50.116;8.424;2023-07-29T06:47:12;6.93;;;2.00;;
22289;SDS011;11313;50.116;8.424;2023-07-29T06:49:38;4.50;;;2.42;;
22289;SDS011;11313;50.116;8.424;2023-07-29T06:52:03;3.47;;;2.05;;
22289;SDS011;11313;50.116;8.424;2023-07-29T06:54:29;3.72;;;2.08;;
22289;SDS011;11313;50.116;8.424;2023-07-29T06:56:54;6.28;;;2.20;;
22289;SDS011;11313;50.116;8.424;2023-07-29T06:59:20;5.55;;;1.75;;
22289;SDS011;11313;50.116;8.424;2023-07-29T07:01:46;4.13;;;2.15;;
22289;SDS011;11313;50.116;8.424;2023-07-29T07:04:11;6.07;;;2.30;;
22289;SDS011;11313;50.116;8.424;2023-07-29T07:06:37;9.15;;;2.70;;
22289;SDS011;11313;50.116;8.424;2023-07-29T07:09:02;6.22;;;2.15;;
22289;SDS011;11313;50.116;8.424;2023-07-29T07:11:28;7.70;;;2.20;;
22289;SDS011;11313;50.116;8.424;2023-07-29T07:13:53;9.18;;;2.42;;
22289;SDS011;11313;50.116;8.424;2023-07-29T07:16:19;5.53;;;2.20;;
22289;SDS011;11313;50.116;8.424;2023-07-29T07:18:44;5.93;;;2.15;;
22289;SDS011;11313;50.116;8.424;2023-07-29T07:21:10;6.30;;;1.90;;
22289;SDS011;11313;50.116;8.424;2023-07-29T07:23:36;5.10;;;2.00;;
22289;SDS011;11313;50.116;8.424;2023-07-29T07:26:01;4.28;;;2.30;;
22289;SDS011;11313;50.116;8.424;2023-07-29T07:28:27;3.15;;;2.20;;
22289;SDS011;11313;50.116;8.424;2023-07-29T07:30:53;4.35;;;1.67;;
22289;SDS011;11313;50.116;8.424;2023-07-29T07:33:20;7.97;;;2.15;;
22289;SDS011;11313;50.116;8.424;2023-07-29T07:35:46;3.42;;;1.88;;
22289;SDS011;11313;50.116;8.424;2023-07-29T07:38:11;5.88;;;1.80;;
22289;SDS011;11313;50.116;8.424;2023-07-29T07:40:37;4.53;;;1.90;;
22289;SDS011;11313;50.116;8.424;2023-07-29T07:43:02;4.22;;;1.70;;
22289;SDS011;11313;50.116;8.424;2023-07-29T07:45:28;4.95;;;1.73;;
22289;SDS011;11313;50.116;8.424;2023-07-29T07:47:53;5.03;;;1.98;;
22289;SDS011;11313;50.116;8.424;2023-07-29T07:50:19;5.25;;;1.73;;
22289;SDS011;11313;50.116;8.424;2023-07-29T07:52:45;10.30;;;2.03;;
22289;SDS011;11313;50.116;8.424;2023-07-29T07:55:11;15.10;;;2.05;;
22289;SDS011;11313;50.116;8.424;2023-07-29T07:57:36;5.10;;;2.10;;
22289;SDS011;11313;50.116;8.424;2023-07-29T08:00:02;4.65;;;1.95;;
22289;SDS011;11313;50.116;8.424;2023-07-29T08:02:29;3.30;;;1.75;;
22289;SDS011;11313;50.116;8.424;2023-07-29T08:04:54;3.15;;;2.00;;
22289;SDS011;11313;50.116;8.424;2023-07-29T08:07:20;3.63;;;1.83;;
22289;SDS011;11313;50.116;8.424;2023-07-29T08:09:46;2.72;;;1.88;;
22289;SDS011;11313;50.116;8.424;2023-07-29T08:12:11;4.90;;;1.90;;
22289;SDS011;11313;50.116;8.424;2023-07-29T08:14:36;2.92;;;1.83;;
22289;SDS011;11313;50.116;8.424;2023-07-29T08:17:02;3.28;;;1.85;;
22289;SDS011;11313;50.116;8.424;2023-07-29T08:19:28;5.38;;;2.00;;
22289;SDS011;11313;50.116;8.424;2023-07-29T08:21:53;5.07;;;1.90;;
22289;SDS011;11313;50.116;8.424;2023-07-29T08:24:19;2.50;;;1.75;;
22289;SDS011;11313;50.116;8.424;2023-07-29T08:26:44;2.63;;;1.73;;
22289;SDS011;11313;50.116;8.424;2023-07-29T08:29:10;10.35;;;2.03;;
22289;SDS011;11313;50.116;8.424;2023-07-29T08:31:37;17.05;;;2.33;;
22289;SDS011;11313;50.116;8.424;2023-07-29T08:34:02;7.90;;;1.90;;
22289;SDS011;11313;50.116;8.424;2023-07-29T08:36:28;8.65;;;1.80;;
22289;SDS011;11313;50.116;8.424;2023-07-29T08:38:53;7.82;;;2.05;;
22289;SDS011;11313;50.116;8.424;2023-07-29T08:41:26;6.00;;;1.83;;
22289;SDS011;11313;50.116;8.424;2023-07-29T08:46:47;5.43;;;1.85;;
22289;SDS011;11313;50.116;8.424;2023-07-29T08:49:13;3.78;;;1.75;;
22289;SDS011;11313;50.116;8.424;2023-07-29T08:51:41;1.83;;;1.55;;
22289;SDS011;11313;50.116;8.424;2023-07-29T09:30:48;5.90;;;1.90;;
22289;SDS011;11313;50.116;8.424;2023-07-29T09:34:01;4.57;;;2.10;;
22289;SDS011;11313;50.116;8.424;2023-07-29T09:39:48;5.63;;;1.92;;
22289;SDS011;11313;50.116;8.424;2023-07-29T09:42:50;7.00;;;2.35;;
22289;SDS011;11313;50.116;8.424;2023-07-29T09:46:02;4.70;;;2.05;;
22289;SDS011;11313;50.116;8.424;2023-07-29T09:48:52;4.57;;;2.00;;
22289;SDS011;11313;50.116;8.424;2023-07-29T09:51:26;6.80;;;2.05;;
22289;SDS011;11313;50.116;8.424;2023-07-29T09:53:55;9.80;;;2.20;;
22289;SDS011;11313;50.116;8.424;2023-07-29T09:56:24;7.10;;;2.30;;
22289;SDS011;11313;50.116;8.424;2023-07-29T09:58:59;5.28;;;2.25;;
22289;SDS011;11313;50.116;8.424;2023-07-29T10:01:40;8.27;;;1.90;;
22289;SDS011;11313;50.116;8.424;2023-07-29T10:04:09;7.30;;;2.50;;
22289;SDS011;11313;50.116;8.424;2023-07-29T10:06:47;5.40;;;2.10;;
22289;SDS011;11313;50.116;8.424;2023-07-29T10:09:19;6.90;;;2.42;;
22289;SDS011;11313;50.116;8.424;2023-07-29T10:11:48;6.78;;;2.40;;
22289;SDS011;11313;50.116;8.424;2023-07-29T10:14:28;5.70;;;2.15;;
22289;SDS011;11313;50.116;8.424;2023-07-29T10:17:05;7.15;;;2.20;;
22289;SDS011;11313;50.116;8.424;2023-07-29T10:19:33;6.35;;;2.08;;
22289;SDS011;11313;50.116;8.424;2023-07-29T10:22:02;8.88;;;2.20;;
22289;SDS011;11313;50.116;8.424;2023-07-29T10:24:32;5.95;;;2.10;;
22289;SDS011;11313;50.116;8.424;2023-07-29T10:26:58;9.90;;;2.25;;
22289;SDS011;11313;50.116;8.424;2023-07-29T10:29:31;7.32;;;2.30;;
22289;SDS011;11313;50.116;8.424;2023-07-29T10:38:14;6.30;;;2.30;;
22289;SDS011;11313;50.116;8.424;2023-07-29T10:55:22;6.78;;;2.05;;
22289;SDS011;11313;50.116;8.424;2023-07-29T11:05:18;8.70;;;2.45;;
22289;SDS011;11313;50.116;8.424;2023-07-29T11:10:24;8.55;;;1.92;;
22289;SDS011;11313;50.116;8.424;2023-07-29T11:21:54;7.53;;;2.13;;
22289;SDS011;11313;50.116;8.424;2023-07-29T11:24:58;5.13;;;1.90;;
22289;SDS011;11313;50.116;8.424;2023-07-29T11:27:47;6.65;;;1.80;;
22289;SDS011;11313;50.116;8.424;2023-07-29T11:30:17;7.30;;;2.20;;
22289;SDS011;11313;50.116;8.424;2023-07-29T11:32:51;5.15;;;2.05;;
22289;SDS011;11313;50.116;8.424;2023-07-29T11:35:31;6.85;;;1.98;;
22289;SDS011;11313;50.116;8.424;2023-07-29T11:37:57;5.80;;;2.10;;
22289;SDS011;11313;50.116;8.424;2023-07-29T11:40:33;5.72;;;1.98;;
22289;SDS011;11313;50.116;8.424;2023-07-29T11:42:59;4.85;;;2.15;;
22289;SDS011;11313;50.116;8.424;2023-07-29T11:45:25;5.82;;;1.80;;
22289;SDS011;11313;50.116;8.424;2023-07-29T11:47:51;4.60;;;1.73;;
22289;SDS011;11313;50.116;8.424;2023-07-29T11:50:17;5.13;;;1.80;;
22289;SDS011;11313;50.116;8.424;2023-07-29T11:52:43;5.40;;;1.75;;
22289;SDS011;11313;50.116;8.424;2023-07-29T11:55:11;6.20;;;1.80;;
22289;SDS011;11313;50.116;8.424;2023-07-29T11:57:38;5.70;;;1.95;;
22289;SDS011;11313;50.116;8.424;2023-07-29T12:00:07;6.07;;;1.88;;
22289;SDS011;11313;50.116;8.424;2023-07-29T12:02:42;5.25;;;1.70;;
22289;SDS011;11313;50.116;8.424;2023-07-29T12:05:11;4.53;;;1.77;;
22289;SDS011;11313;50.116;8.424;2023-07-29T12:07:38;5.72;;;1.75;;
22289;SDS011;11313;50.116;8.424;2023-07-29T12:10:04;5.35;;;2.03;;
22289;SDS011;11313;50.116;8.424;2023-07-29T12:12:30;5.65;;;1.70;;
22289;SDS011;11313;50.116;8.424;2023-07-29T12:14:56;5.53;;;1.80;;
22289;SDS011;11313;50.116;8.424;2023-07-29T12:17:22;3.38;;;1.50;;
22289;SDS011;11313;50.116;8.424;2023-07-29T12:19:48;4.80;;;2.03;;
22289;SDS011;11313;50.116;8.424;2023-07-29T12:22:17;7.45;;;1.60;;
22289;SDS011;11313;50.116;8.424;2023-07-29T12:24:44;5.72;;;1.90;;
22289;SDS011;11313;50.116;8.424;2023-07-29T12:27:10;6.20;;;1.75;;
22289;SDS011;11313;50.116;8.424;2023-07-29T12:29:44;3.92;;;1.38;;
22289;SDS011;11313;50.116;8.424;2023-07-29T12:32:11;6.32;;;1.88;;
22289;SDS011;11313;50.116;8.424;2023-07-29T12:34:37;4.13;;;1.42;;
22289;SDS011;11313;50.116;8.424;2023-07-29T12:37:04;3.78;;;1.50;;
22289;SDS011;11313;50.116;8.424;2023-07-29T12:39:34;5.68;;;1.55;;
22289;SDS011;11313;50.116;8.424;2023-07-29T12:42:07;2.97;;;1.55;;
22289;SDS011;11313;50.116;8.424;2023-07-29T12:44:34;5.35;;;1.42;;
22289;SDS011;11313;50.116;8.424;2023-07-29T12:47:01;3.10;;;1.48;;
22289;SDS011;11313;50.116;8.424;2023-07-29T12:49:29;4.50;;;1.60;;
22289;SDS011;11313;50.116;8.424;2023-07-29T12:51:55;4.88;;;1.77;;
22289;SDS011;11313;50.116;8.424;2023-07-29T12:54:21;4.10;;;1.50;;
22289;SDS011;11313;50.116;8.424;2023-07-29T12:56:47;5.97;;;1.40;;
22289;SDS011;11313;50.116;8.424;2023-07-29T12:59:13;2.90;;;1.50;;
22289;SDS011;11313;50.116;8.424;2023-07-29T13:01:38;5.32;;;1.60;;
22289;SDS011;11313;50.116;8.424;2023-07-29T13:04:04;3.15;;;1.70;;
22289;SDS011;11313;50.116;8.424;2023-07-29T13:06:29;3.72;;;1.73;;
22289;SDS011;11313;50.116;8.424;2023-07-29T13:08:55;6.95;;;1.70;;
22289;SDS011;11313;50.116;8.424;2023-07-29T13:11:21;2.25;;;1.45;;
22289;SDS011;11313;50.116;8.424;2023-07-29T13:13:47;5.28;;;1.55;;
22289;SDS011;11313;50.116;8.424;2023-07-29T13:16:12;4.88;;;1.70;;
22289;SDS011;11313;50.116;8.424;2023-07-29T13:18:38;4.13;;;1.65;;
22289;SDS011;11313;50.116;8.424;2023-07-29T13:21:04;7.15;;;1.50;;
22289;SDS011;11313;50.116;8.424;2023-07-29T13:23:30;3.33;;;1.60;;
22289;SDS011;11313;50.116;8.424;2023-07-29T13:25:56;4.03;;;1.50;;
22289;SDS011;11313;50.116;8.424;2023-07-29T13:28:22;5.38;;;1.70;;
22289;SDS011;11313;50.116;8.424;2023-07-29T13:30:48;4.43;;;1.40;;
22289;SDS011;11313;50.116;8.424;2023-07-29T13:33:13;5.03;;;1.60;;
22289;SDS011;11313;50.116;8.424;2023-07-29T13:35:39;2.88;;;1.42;;
22289;SDS011;11313;50.116;8.424;2023-07-29T13:38:05;3.95;;;1.77;;
22289;SDS011;11313;50.116;8.424;2023-07-29T13:40:31;3.75;;;1.40;;
22289;SDS011;11313;50.116;8.424;2023-07-29T13:42:56;4.07;;;1.65;;
22289;SDS011;11313;50.116;8.424;2023-07-29T13:45:22;3.80;;;1.90;;
22289;SDS011;11313;50.116;8.424;2023-07-29T13:47:48;3.25;;;1.40;;
22289;SDS011;11313;50.116;8.424;2023-07-29T13:50:15;1.90;;;1.20;;
22289;SDS011;11313;50.116;8.424;2023-07-29T13:52:41;4.30;;;1.60;;
22289;SDS011;11313;50.116;8.424;2023-07-29T13:55:06;4.85;;;1.48;;
22289;SDS011;11313;50.116;8.424;2023-07-29T13:57:32;3.85;;;1.88;;
22289;SDS011;11313;50.116;8.424;2023-07-29T13:59:58;3.83;;;1.70;;
22289;SDS011;11313;50.116;8.424;2023-07-29T14:02:24;4.05;;;1.48;;
22289;SDS011;11313;50.116;8.424;2023-07-29T14:04:51;4.55;;;1.95;;
22289;SDS011;11313;50.116;8.424;2023-07-29T14:07:17;4.72;;;1.70;;
22289;SDS011;11313;50.116;8.424;2023-07-29T14:09:42;4.30;;;1.60;;
22289;SDS011;11313;50.116;8.424;2023-07-29T14:12:08;4.10;;;1.50;;
22289;SDS011;11313;50.116;8.424;2023-07-29T14:14:37;2.92;;;1.63;;
22289;SDS011;11313;50.116;8.424;2023-07-29T14:17:03;5.07;;;1.60;;
22289;SDS011;11313;50.116;8.424;2023-07-29T14:19:29;3.33;;;1.65;;
22289;SDS011;11313;50.116;8.424;2023-07-29T14:21:54;2.30;;;1.40;;
22289;SDS011;11313;50.116;8.424;2023-07-29T14:24:20;4.68;;;2.00;;
22289;SDS011;11313;50.116;8.424;2023-07-29T14:26:46;4.13;;;1.55;;
22289;SDS011;11313;50.116;8.424;2023-07-29T14:29:12;3.60;;;1.63;;
22289;SDS011;11313;50.116;8.424;2023-07-29T14:31:37;3.00;;;1.60;;
22289;SDS011;11313;50.116;8.424;2023-07-29T14:34:02;7.80;;;2.00;;
22289;SDS011;11313;50.116;8.424;2023-07-29T14:36:28;3.92;;;1.60;;
22289;SDS011;11313;50.116;8.424;2023-07-29T14:38:53;4.20;;;1.83;;
22289;SDS011;11313;50.116;8.424;2023-07-29T14:41:19;3.92;;;1.67;;
22289;SDS011;11313;50.116;8.424;2023-07-29T14:43:44;3.60;;;1.52;;
22289;SDS011;11313;50.116;8.424;2023-07-29T14:46:10;4.40;;;1.80;;
22289;SDS011;11313;50.116;8.424;2023-07-29T14:48:35;3.45;;;1.60;;
22289;SDS011;11313;50.116;8.424;2023-07-29T14:51:01;3.10;;;1.50;;
22289;SDS011;11313;50.116;8.424;2023-07-29T14:53:26;3.75;;;1.75;;
22289;SDS011;11313;50.116;8.424;2023-07-29T14:55:52;3.15;;;1.52;;
22289;SDS011;11313;50.116;8.424;2023-07-29T14:58:17;2.97;;;1.52;;
22289;SDS011;11313;50.116;8.424;2023-07-29T15:00:43;2.95;;;1.55;;
22289;SDS011;11313;50.116;8.424;2023-07-29T15:03:08;2.00;;;1.40;;
22289;SDS011;11313;50.116;8.424;2023-07-29T15:05:34;2.83;;;1.40;;
22289;SDS011;11313;50.116;8.424;2023-07-29T15:07:59;2.92;;;1.50;;
22289;SDS011;11313;50.116;8.424;2023-07-29T15:10:25;2.90;;;1.45;;
22289;SDS011;11313;50.116;8.424;2023-07-29T15:12:50;1.83;;;1.58;;
22289;SDS011;11313;50.116;8.424;2023-07-29T15:15:16;1.52;;;1.38;;
22289;SDS011;11313;50.116;8.424;2023-07-29T15:17:42;2.10;;;1.60;;
22289;SDS011;11313;50.116;8.424;2023-07-29T15:20:08;1.90;;;1.52;;
22289;SDS011;11313;50.116;8.424;2023-07-29T15:22:34;2.90;;;1.60;;
22289;SDS011;11313;50.116;8.424;2023-07-29T15:24:59;2.22;;;1.60;;
22289;SDS011;11313;50.116;8.424;2023-07-29T15:27:28;2.90;;;1.45;;
22289;SDS011;11313;50.116;8.424;2023-07-29T15:29:54;1.77;;;1.50;;
22289;SDS011;11313;50.116;8.424;2023-07-29T15:32:20;2.58;;;1.67;;
22289;SDS011;11313;50.116;8.424;2023-07-29T15:34:45;2.40;;;1.33;;
22289;SDS011;11313;50.116;8.424;2023-07-29T15:37:11;2.15;;;1.50;;
22289;SDS011;11313;50.116;8.424;2023-07-29T15:39:37;1.85;;;1.60;;
22289;SDS011;11313;50.116;8.424;2023-07-29T15:42:02;1.73;;;1.40;;
22289;SDS011;11313;50.116;8.424;2023-07-29T15:44:28;1.65;;;1.45;;
22289;SDS011;11313;50.116;8.424;2023-07-29T15:46:54;2.17;;;1.48;;
22289;SDS011;11313;50.116;8.424;2023-07-29T15:49:21;1.60;;;1.40;;
22289;SDS011;11313;50.116;8.424;2023-07-29T15:51:47;1.92;;;1.73;;
22289;SDS011;11313;50.116;8.424;2023-07-29T15:54:13;1.63;;;1.30;;
22289;SDS011;11313;50.116;8.424;2023-07-29T15:56:38;1.73;;;1.63;;
22289;SDS011;11313;50.116;8.424;2023-07-29T15:59:04;2.95;;;1.77;;
22289;SDS011;11313;50.116;8.424;2023-07-29T16:01:30;2.50;;;1.50;;
22289;SDS011;11313;50.116;8.424;2023-07-29T16:03:56;2.45;;;1.40;;
22289;SDS011;11313;50.116;8.424;2023-07-29T16:06:21;1.92;;;1.52;;
22289;SDS011;11313;50.116;8.424;2023-07-29T16:08:47;1.85;;;1.50;;
22289;SDS011;11313;50.116;8.424;2023-07-29T16:11:13;2.65;;;1.60;;
22289;SDS011;11313;50.116;8.424;2023-07-29T16:13:38;2.30;;;1.60;;
22289;SDS011;11313;50.116;8.424;2023-07-29T16:16:04;2.03;;;1.70;;
22289;SDS011;11313;50.116;8.424;2023-07-29T16:18:30;4.13;;;1.63;;
22289;SDS011;11313;50.116;8.424;2023-07-29T16:20:56;3.15;;;1.80;;
22289;SDS011;11313;50.116;8.424;2023-07-29T16:23:36;3.10;;;1.90;;
22289;SDS011;11313;50.116;8.424;2023-07-29T16:26:01;3.20;;;1.60;;
22289;SDS011;11313;50.116;8.424;2023-07-29T16:28:27;4.93;;;1.90;;
22289;SDS011;11313;50.116;8.424;2023-07-29T16:30:52;4.45;;;1.80;;
22289;SDS011;11313;50.116;8.424;2023-07-29T16:33:18;6.28;;;2.17;;
22289;SDS011;11313;50.116;8.424;2023-07-29T16:35:44;3.45;;;1.80;;
22289;SDS011;11313;50.116;8.424;2023-07-29T16:38:09;3.72;;;1.70;;
22289;SDS011;11313;50.116;8.424;2023-07-29T16:40:35;5.50;;;2.05;;
22289;SDS011;11313;50.116;8.424;2023-07-29T16:43:00;5.00;;;2.00;;
22289;SDS011;11313;50.116;8.424;2023-07-29T16:45:26;4.90;;;2.13;;
22289;SDS011;11313;50.116;8.424;2023-07-29T16:47:55;6.25;;;2.20;;
22289;SDS011;11313;50.116;8.424;2023-07-29T16:50:21;6.65;;;2.10;;
22289;SDS011;11313;50.116;8.424;2023-07-29T16:52:47;7.88;;;2.17;;
22289;SDS011;11313;50.116;8.424;2023-07-29T16:55:18;7.78;;;2.40;;
22289;SDS011;11313;50.116;8.424;2023-07-29T16:57:45;7.68;;;2.35;;
22289;SDS011;11313;50.116;8.424;2023-07-29T17:00:11;7.53;;;2.40;;
22289;SDS011;11313;50.116;8.424;2023-07-29T17:02:37;7.47;;;2.28;;
22289;SDS011;11313;50.116;8.424;2023-07-29T17:05:02;7.55;;;2.53;;
22289;SDS011;11313;50.116;8.424;2023-07-29T17:07:29;7.65;;;2.20;;
22289;SDS011;11313;50.116;8.424;2023-07-29T17:09:55;9.82;;;2.40;;
22289;SDS011;11313;50.116;8.424;2023-07-29T17:12:20;6.68;;;2.60;;
22289;SDS011;11313;50.116;8.424;2023-07-29T17:14:46;9.15;;;2.40;;
22289;SDS011;11313;50.116;8.424;2023-07-29T17:17:11;9.98;;;2.60;;
22289;SDS011;11313;50.116;8.424;2023-07-29T17:19:37;9.82;;;2.70;;
22289;SDS011;11313;50.116;8.424;2023-07-29T17:22:02;6.57;;;2.22;;
22289;SDS011;11313;50.116;8.424;2023-07-29T17:24:28;6.82;;;2.38;;
22289;SDS011;11313;50.116;8.424;2023-07-29T17:26:54;7.40;;;2.33;;
22289;SDS011;11313;50.116;8.424;2023-07-29T17:29:19;6.65;;;2.30;;
22289;SDS011;11313;50.116;8.424;2023-07-29T17:31:45;9.57;;;2.60;;
22289;SDS011;11313;50.116;8.424;2023-07-29T17:34:10;6.53;;;2.70;;
22289;SDS011;11313;50.116;8.424;2023-07-29T17:36:36;7.70;;;2.50;;
22289;SDS011;11313;50.116;8.424;2023-07-29T17:39:02;7.35;;;2.40;;
22289;SDS011;11313;50.116;8.424;2023-07-29T17:41:28;5.38;;;2.15;;
22289;SDS011;11313;50.116;8.424;2023-07-29T17:43:53;8.15;;;2.50;;